sensor_id;sensor_type;location;lat;lon;timestamp;P1;durP1;ratioP1;P2;durP2;ratioP2
57828;SDS011;43657;52.698;6.314;2023-04-01T00:00:56;13.80;;;7.72;;
57828;SDS011;43657;52.698;6.314;2023-04-01T00:03:23;11.57;;;8.30;;
57828;SDS011;43657;52.698;6.314;2023-04-01T00:05:49;11.20;;;7.85;;
57828;SDS011;43657;52.698;6.314;2023-04-01T00:08:15;11.13;;;7.72;;
57828;SDS011;43657;52.698;6.314;2023-04-01T00:10:41;12.82;;;8.32;;
57828;SDS011;43657;52.698;6.314;2023-04-01T00:13:07;15.55;;;8.75;;
57828;SDS011;43657;52.698;6.314;2023-04-01T00:15:33;12.88;;;8.60;;
57828;SDS011;43657;52.698;6.314;2023-04-01T00:17:59;13.95;;;8.93;;
57828;SDS011;43657;52.698;6.314;2023-04-01T00:20:25;11.93;;;8.27;;
57828;SDS011;43657;52.698;6.314;2023-04-01T00:22:51;13.15;;;8.93;;
57828;SDS011;43657;52.698;6.314;2023-04-01T00:25:17;11.85;;;8.77;;
57828;SDS011;43657;52.698;6.314;2023-04-01T00:27:43;11.68;;;8.52;;
57828;SDS011;43657;52.698;6.314;2023-04-01T00:30:09;15.15;;;8.90;;
57828;SDS011;43657;52.698;6.314;2023-04-01T00:32:35;13.20;;;8.02;;
57828;SDS011;43657;52.698;6.314;2023-04-01T00:35:01;11.82;;;8.18;;
57828;SDS011;43657;52.698;6.314;2023-04-01T00:37:27;11.70;;;8.18;;
57828;SDS011;43657;52.698;6.314;2023-04-01T00:39:53;10.25;;;7.78;;
57828;SDS011;43657;52.698;6.314;2023-04-01T00:42:19;12.68;;;7.90;;
57828;SDS011;43657;52.698;6.314;2023-04-01T00:44:47;13.82;;;8.13;;
57828;SDS011;43657;52.698;6.314;2023-04-01T00:47:15;11.45;;;7.97;;
57828;SDS011;43657;52.698;6.314;2023-04-01T00:49:42;9.77;;;7.13;;
57828;SDS011;43657;52.698;6.314;2023-04-01T00:52:14;9.73;;;7.60;;
57828;SDS011;43657;52.698;6.314;2023-04-01T00:54:43;8.45;;;7.25;;
57828;SDS011;43657;52.698;6.314;2023-04-01T00:57:13;11.32;;;7.82;;
57828;SDS011;43657;52.698;6.314;2023-04-01T00:59:45;11.07;;;7.57;;
57828;SDS011;43657;52.698;6.314;2023-04-01T01:02:13;10.05;;;7.53;;
57828;SDS011;43657;52.698;6.314;2023-04-01T01:04:39;11.43;;;7.03;;
57828;SDS011;43657;52.698;6.314;2023-04-01T01:10:04;11.00;;;7.38;;
57828;SDS011;43657;52.698;6.314;2023-04-01T01:12:53;11.07;;;7.65;;
57828;SDS011;43657;52.698;6.314;2023-04-01T01:18:06;10.93;;;7.78;;
57828;SDS011;43657;52.698;6.314;2023-04-01T01:23:52;12.77;;;8.38;;
57828;SDS011;43657;52.698;6.314;2023-04-01T01:26:39;14.35;;;8.52;;
57828;SDS011;43657;52.698;6.314;2023-04-01T01:32:14;13.82;;;8.00;;
57828;SDS011;43657;52.698;6.314;2023-04-01T01:37:41;13.82;;;8.95;;
57828;SDS011;43657;52.698;6.314;2023-04-01T01:40:09;12.90;;;8.63;;
57828;SDS011;43657;52.698;6.314;2023-04-01T01:42:37;16.10;;;8.98;;
57828;SDS011;43657;52.698;6.314;2023-04-01T01:45:05;14.15;;;8.85;;
57828;SDS011;43657;52.698;6.314;2023-04-01T01:47:33;16.40;;;9.05;;
57828;SDS011;43657;52.698;6.314;2023-04-01T01:50:00;16.95;;;8.98;;
57828;SDS011;43657;52.698;6.314;2023-04-01T01:52:28;17.10;;;8.75;;
57828;SDS011;43657;52.698;6.314;2023-04-01T01:54:54;13.50;;;8.05;;
57828;SDS011;43657;52.698;6.314;2023-04-01T01:57:23;15.38;;;10.10;;
57828;SDS011;43657;52.698;6.314;2023-04-01T01:59:52;15.98;;;9.90;;
57828;SDS011;43657;52.698;6.314;2023-04-01T02:02:22;15.65;;;9.52;;
57828;SDS011;43657;52.698;6.314;2023-04-01T02:04:49;14.75;;;9.57;;
57828;SDS011;43657;52.698;6.314;2023-04-01T02:07:18;16.25;;;9.55;;
57828;SDS011;43657;52.698;6.314;2023-04-01T02:09:47;15.80;;;9.50;;
57828;SDS011;43657;52.698;6.314;2023-04-01T02:12:14;16.08;;;9.35;;
57828;SDS011;43657;52.698;6.314;2023-04-01T02:14:55;15.88;;;9.80;;
57828;SDS011;43657;52.698;6.314;2023-04-01T02:17:30;21.83;;;10.20;;
57828;SDS011;43657;52.698;6.314;2023-04-01T02:20:02;14.75;;;9.50;;
57828;SDS011;43657;52.698;6.314;2023-04-01T02:22:39;18.60;;;10.15;;
57828;SDS011;43657;52.698;6.314;2023-04-01T02:25:09;16.25;;;9.45;;
57828;SDS011;43657;52.698;6.314;2023-04-01T02:27:38;18.27;;;10.65;;
57828;SDS011;43657;52.698;6.314;2023-04-01T02:30:05;16.20;;;9.68;;
57828;SDS011;43657;52.698;6.314;2023-04-01T02:32:32;16.83;;;10.20;;
57828;SDS011;43657;52.698;6.314;2023-04-01T02:34:59;16.27;;;10.05;;
57828;SDS011;43657;52.698;6.314;2023-04-01T02:37:29;17.83;;;10.52;;
57828;SDS011;43657;52.698;6.314;2023-04-01T02:39:58;17.35;;;9.63;;
57828;SDS011;43657;52.698;6.314;2023-04-01T02:42:25;16.02;;;9.88;;
57828;SDS011;43657;52.698;6.314;2023-04-01T02:44:50;18.73;;;10.38;;
57828;SDS011;43657;52.698;6.314;2023-04-01T02:47:16;21.05;;;10.70;;
57828;SDS011;43657;52.698;6.314;2023-04-01T02:49:42;25.38;;;10.88;;
57828;SDS011;43657;52.698;6.314;2023-04-01T02:52:07;18.52;;;10.32;;
57828;SDS011;43657;52.698;6.314;2023-04-01T02:54:33;19.65;;;11.13;;
57828;SDS011;43657;52.698;6.314;2023-04-01T02:56:58;19.30;;;10.95;;
57828;SDS011;43657;52.698;6.314;2023-04-01T02:59:24;22.95;;;11.45;;
57828;SDS011;43657;52.698;6.314;2023-04-01T03:01:49;18.35;;;11.13;;
57828;SDS011;43657;52.698;6.314;2023-04-01T03:04:15;20.73;;;11.68;;
57828;SDS011;43657;52.698;6.314;2023-04-01T03:06:40;19.83;;;10.68;;
57828;SDS011;43657;52.698;6.314;2023-04-01T03:09:06;21.23;;;11.57;;
57828;SDS011;43657;52.698;6.314;2023-04-01T03:11:31;24.92;;;11.30;;
57828;SDS011;43657;52.698;6.314;2023-04-01T03:13:57;23.65;;;11.60;;
57828;SDS011;43657;52.698;6.314;2023-04-01T03:16:22;31.05;;;12.55;;
57828;SDS011;43657;52.698;6.314;2023-04-01T03:18:48;26.83;;;12.00;;
57828;SDS011;43657;52.698;6.314;2023-04-01T03:21:19;41.30;;;13.50;;
57828;SDS011;43657;52.698;6.314;2023-04-01T03:23:49;28.55;;;12.35;;
57828;SDS011;43657;52.698;6.314;2023-04-01T03:26:15;27.25;;;11.65;;
57828;SDS011;43657;52.698;6.314;2023-04-01T03:28:41;38.17;;;13.27;;
57828;SDS011;43657;52.698;6.314;2023-04-01T03:31:07;37.95;;;12.98;;
57828;SDS011;43657;52.698;6.314;2023-04-01T03:33:32;30.02;;;12.60;;
57828;SDS011;43657;52.698;6.314;2023-04-01T03:35:58;25.05;;;12.02;;
57828;SDS011;43657;52.698;6.314;2023-04-01T03:38:24;21.77;;;11.85;;
57828;SDS011;43657;52.698;6.314;2023-04-01T03:40:49;29.75;;;12.13;;
57828;SDS011;43657;52.698;6.314;2023-04-01T03:43:15;23.60;;;12.27;;
57828;SDS011;43657;52.698;6.314;2023-04-01T03:45:48;34.47;;;12.63;;
57828;SDS011;43657;52.698;6.314;2023-04-01T03:48:15;40.47;;;12.95;;
57828;SDS011;43657;52.698;6.314;2023-04-01T03:50:41;28.38;;;12.95;;
57828;SDS011;43657;52.698;6.314;2023-04-01T03:53:07;41.10;;;13.23;;
57828;SDS011;43657;52.698;6.314;2023-04-01T03:55:33;37.15;;;12.68;;
57828;SDS011;43657;52.698;6.314;2023-04-01T03:57:59;43.92;;;13.13;;
57828;SDS011;43657;52.698;6.314;2023-04-01T04:00:26;39.28;;;13.00;;
57828;SDS011;43657;52.698;6.314;2023-04-01T04:02:52;43.42;;;13.60;;
57828;SDS011;43657;52.698;6.314;2023-04-01T04:05:18;41.78;;;13.63;;
57828;SDS011;43657;52.698;6.314;2023-04-01T04:07:44;59.47;;;15.63;;
57828;SDS011;43657;52.698;6.314;2023-04-01T04:10:09;49.85;;;14.73;;
57828;SDS011;43657;52.698;6.314;2023-04-01T04:12:35;34.80;;;13.35;;
57828;SDS011;43657;52.698;6.314;2023-04-01T04:15:00;35.92;;;13.68;;
57828;SDS011;43657;52.698;6.314;2023-04-01T04:17:26;47.42;;;14.32;;
57828;SDS011;43657;52.698;6.314;2023-04-01T04:19:51;67.22;;;15.48;;
57828;SDS011;43657;52.698;6.314;2023-04-01T04:22:17;42.03;;;14.15;;
57828;SDS011;43657;52.698;6.314;2023-04-01T04:24:42;46.00;;;14.20;;
57828;SDS011;43657;52.698;6.314;2023-04-01T04:27:08;38.22;;;14.27;;
57828;SDS011;43657;52.698;6.314;2023-04-01T04:29:33;39.58;;;14.60;;
57828;SDS011;43657;52.698;6.314;2023-04-01T04:31:59;33.28;;;14.55;;
57828;SDS011;43657;52.698;6.314;2023-04-01T04:34:25;45.40;;;15.43;;
57828;SDS011;43657;52.698;6.314;2023-04-01T04:36:50;46.88;;;16.65;;
57828;SDS011;43657;52.698;6.314;2023-04-01T04:39:16;56.95;;;15.45;;
57828;SDS011;43657;52.698;6.314;2023-04-01T04:41:42;49.42;;;16.20;;
57828;SDS011;43657;52.698;6.314;2023-04-01T04:44:07;72.05;;;17.20;;
57828;SDS011;43657;52.698;6.314;2023-04-01T04:46:33;52.13;;;17.00;;
57828;SDS011;43657;52.698;6.314;2023-04-01T04:48:58;65.47;;;17.48;;
57828;SDS011;43657;52.698;6.314;2023-04-01T04:51:24;81.20;;;18.42;;
57828;SDS011;43657;52.698;6.314;2023-04-01T04:53:50;68.85;;;17.48;;
57828;SDS011;43657;52.698;6.314;2023-04-01T04:56:19;64.18;;;17.80;;
57828;SDS011;43657;52.698;6.314;2023-04-01T04:58:46;54.47;;;16.50;;
57828;SDS011;43657;52.698;6.314;2023-04-01T05:01:13;44.78;;;16.33;;
57828;SDS011;43657;52.698;6.314;2023-04-01T05:03:40;44.08;;;15.85;;
57828;SDS011;43657;52.698;6.314;2023-04-01T05:06:06;42.40;;;14.88;;
57828;SDS011;43657;52.698;6.314;2023-04-01T05:08:33;43.53;;;15.10;;
57828;SDS011;43657;52.698;6.314;2023-04-01T05:10:59;38.60;;;14.52;;
57828;SDS011;43657;52.698;6.314;2023-04-01T05:13:25;53.28;;;16.70;;
57828;SDS011;43657;52.698;6.314;2023-04-01T05:15:51;48.28;;;17.38;;
57828;SDS011;43657;52.698;6.314;2023-04-01T05:18:17;45.70;;;18.15;;
57828;SDS011;43657;52.698;6.314;2023-04-01T05:20:49;44.50;;;16.85;;
57828;SDS011;43657;52.698;6.314;2023-04-01T05:23:16;47.67;;;16.55;;
57828;SDS011;43657;52.698;6.314;2023-04-01T05:25:43;48.85;;;16.42;;
57828;SDS011;43657;52.698;6.314;2023-04-01T05:28:10;42.60;;;15.27;;
57828;SDS011;43657;52.698;6.314;2023-04-01T05:30:36;61.28;;;14.52;;
57828;SDS011;43657;52.698;6.314;2023-04-01T05:33:01;36.35;;;12.77;;
57828;SDS011;43657;52.698;6.314;2023-04-01T05:35:27;33.75;;;11.27;;
57828;SDS011;43657;52.698;6.314;2023-04-01T05:37:53;24.98;;;10.00;;
57828;SDS011;43657;52.698;6.314;2023-04-01T05:40:18;30.88;;;9.55;;
57828;SDS011;43657;52.698;6.314;2023-04-01T05:42:44;18.70;;;7.43;;
57828;SDS011;43657;52.698;6.314;2023-04-01T05:45:10;21.05;;;7.55;;
57828;SDS011;43657;52.698;6.314;2023-04-01T05:47:35;21.10;;;7.15;;
57828;SDS011;43657;52.698;6.314;2023-04-01T05:50:01;17.13;;;5.93;;
57828;SDS011;43657;52.698;6.314;2023-04-01T05:52:26;15.25;;;5.70;;
57828;SDS011;43657;52.698;6.314;2023-04-01T05:54:52;29.02;;;6.47;;
57828;SDS011;43657;52.698;6.314;2023-04-01T05:57:17;16.13;;;5.50;;
57828;SDS011;43657;52.698;6.314;2023-04-01T05:59:43;30.23;;;20.00;;
57828;SDS011;43657;52.698;6.314;2023-04-01T06:02:09;10.85;;;5.18;;
57828;SDS011;43657;52.698;6.314;2023-04-01T06:04:37;11.85;;;5.43;;
57828;SDS011;43657;52.698;6.314;2023-04-01T06:07:13;9.70;;;4.50;;
57828;SDS011;43657;52.698;6.314;2023-04-01T06:09:41;10.40;;;3.70;;
57828;SDS011;43657;52.698;6.314;2023-04-01T06:12:24;13.05;;;3.88;;
57828;SDS011;43657;52.698;6.314;2023-04-01T06:20:56;8.32;;;3.50;;
57828;SDS011;43657;52.698;6.314;2023-04-01T06:27:01;12.63;;;4.63;;
57828;SDS011;43657;52.698;6.314;2023-04-01T06:29:58;11.80;;;4.97;;
57828;SDS011;43657;52.698;6.314;2023-04-01T06:40:49;16.25;;;6.80;;
57828;SDS011;43657;52.698;6.314;2023-04-01T06:46:29;14.02;;;7.30;;
57828;SDS011;43657;52.698;6.314;2023-04-01T06:54:48;19.15;;;7.30;;
57828;SDS011;43657;52.698;6.314;2023-04-01T06:57:43;14.73;;;6.80;;
57828;SDS011;43657;52.698;6.314;2023-04-01T07:02:54;17.33;;;8.13;;
57828;SDS011;43657;52.698;6.314;2023-04-01T07:05:34;21.67;;;9.43;;
57828;SDS011;43657;52.698;6.314;2023-04-01T07:08:11;24.63;;;9.40;;
57828;SDS011;43657;52.698;6.314;2023-04-01T07:10:44;19.67;;;8.88;;
57828;SDS011;43657;52.698;6.314;2023-04-01T07:13:24;20.23;;;9.10;;
57828;SDS011;43657;52.698;6.314;2023-04-01T07:16:16;16.30;;;8.45;;
57828;SDS011;43657;52.698;6.314;2023-04-01T07:19:00;16.75;;;8.55;;
57828;SDS011;43657;52.698;6.314;2023-04-01T07:21:44;15.40;;;7.35;;
57828;SDS011;43657;52.698;6.314;2023-04-01T07:24:13;17.80;;;8.02;;
57828;SDS011;43657;52.698;6.314;2023-04-01T07:27:01;14.20;;;7.05;;
57828;SDS011;43657;52.698;6.314;2023-04-01T07:29:27;16.60;;;6.93;;
57828;SDS011;43657;52.698;6.314;2023-04-01T07:35:09;16.38;;;8.05;;
57828;SDS011;43657;52.698;6.314;2023-04-01T07:40:48;14.43;;;6.63;;
57828;SDS011;43657;52.698;6.314;2023-04-01T07:43:51;13.02;;;6.80;;
57828;SDS011;43657;52.698;6.314;2023-04-01T07:49:07;10.68;;;6.40;;
57828;SDS011;43657;52.698;6.314;2023-04-01T07:51:40;13.00;;;7.45;;
57828;SDS011;43657;52.698;6.314;2023-04-01T07:54:26;12.90;;;8.43;;
57828;SDS011;43657;52.698;6.314;2023-04-01T07:57:30;12.60;;;8.77;;
57828;SDS011;43657;52.698;6.314;2023-04-01T08:00:11;11.75;;;8.57;;
57828;SDS011;43657;52.698;6.314;2023-04-01T08:03:09;11.13;;;9.40;;
57828;SDS011;43657;52.698;6.314;2023-04-01T08:05:54;12.70;;;9.38;;
57828;SDS011;43657;52.698;6.314;2023-04-01T08:08:46;11.00;;;8.65;;
57828;SDS011;43657;52.698;6.314;2023-04-01T08:11:31;12.60;;;8.52;;
57828;SDS011;43657;52.698;6.314;2023-04-01T08:17:18;12.25;;;9.27;;
57828;SDS011;43657;52.698;6.314;2023-04-01T08:25:37;8.05;;;6.53;;
57828;SDS011;43657;52.698;6.314;2023-04-01T08:31:09;9.38;;;6.90;;
57828;SDS011;43657;52.698;6.314;2023-04-01T08:33:57;8.93;;;6.97;;
57828;SDS011;43657;52.698;6.314;2023-04-01T08:36:29;8.20;;;6.45;;
57828;SDS011;43657;52.698;6.314;2023-04-01T08:39:09;7.43;;;6.50;;
57828;SDS011;43657;52.698;6.314;2023-04-01T08:41:56;8.32;;;6.90;;
57828;SDS011;43657;52.698;6.314;2023-04-01T08:56:06;6.22;;;4.82;;
57828;SDS011;43657;52.698;6.314;2023-04-01T08:58:42;5.25;;;4.45;;
57828;SDS011;43657;52.698;6.314;2023-04-01T09:01:43;4.80;;;3.67;;
57828;SDS011;43657;52.698;6.314;2023-04-01T09:04:50;5.30;;;3.70;;
57828;SDS011;43657;52.698;6.314;2023-04-01T09:11:00;4.88;;;3.50;;
57828;SDS011;43657;52.698;6.314;2023-04-01T09:27:44;5.35;;;3.90;;
57828;SDS011;43657;52.698;6.314;2023-04-01T09:30:44;5.07;;;3.70;;
57828;SDS011;43657;52.698;6.314;2023-04-01T09:47:42;2.05;;;1.80;;
57828;SDS011;43657;52.698;6.314;2023-04-01T09:54:13;2.53;;;1.95;;
57828;SDS011;43657;52.698;6.314;2023-04-01T10:02:58;4.18;;;2.90;;
57828;SDS011;43657;52.698;6.314;2023-04-01T10:05:55;5.15;;;3.60;;
57828;SDS011;43657;52.698;6.314;2023-04-01T10:12:56;5.50;;;4.18;;
57828;SDS011;43657;52.698;6.314;2023-04-01T10:28:33;8.82;;;7.68;;
57828;SDS011;43657;52.698;6.314;2023-04-01T10:33:25;9.32;;;8.43;;
57828;SDS011;43657;52.698;6.314;2023-04-01T10:34:46;9.32;;;8.20;;
57828;SDS011;43657;52.698;6.314;2023-04-01T10:40:25;8.82;;;7.90;;
57828;SDS011;43657;52.698;6.314;2023-04-01T10:49:41;9.63;;;8.48;;
57828;SDS011;43657;52.698;6.314;2023-04-01T10:55:47;8.88;;;7.97;;
57828;SDS011;43657;52.698;6.314;2023-04-01T11:01:53;8.63;;;7.82;;
57828;SDS011;43657;52.698;6.314;2023-04-01T11:10:44;8.88;;;8.07;;
57828;SDS011;43657;52.698;6.314;2023-04-01T11:13:53;9.63;;;8.73;;
57828;SDS011;43657;52.698;6.314;2023-04-01T11:34:42;10.00;;;9.00;;
57828;SDS011;43657;52.698;6.314;2023-04-01T11:37:34;8.85;;;7.95;;
57828;SDS011;43657;52.698;6.314;2023-04-01T11:40:11;12.00;;;10.80;;
57828;SDS011;43657;52.698;6.314;2023-04-01T11:54:27;8.82;;;7.93;;
57828;SDS011;43657;52.698;6.314;2023-04-01T12:08:27;8.32;;;7.53;;
57828;SDS011;43657;52.698;6.314;2023-04-01T12:23:03;8.57;;;7.78;;
57828;SDS011;43657;52.698;6.314;2023-04-01T12:39:52;7.68;;;6.97;;
57828;SDS011;43657;52.698;6.314;2023-04-01T12:42:32;8.07;;;7.18;;
57828;SDS011;43657;52.698;6.314;2023-04-01T12:47:58;7.80;;;7.10;;
57828;SDS011;43657;52.698;6.314;2023-04-01T13:03:05;7.43;;;6.60;;
57828;SDS011;43657;52.698;6.314;2023-04-01T13:05:01;7.28;;;6.60;;
57828;SDS011;43657;52.698;6.314;2023-04-01T13:07:51;7.15;;;6.45;;
57828;SDS011;43657;52.698;6.314;2023-04-01T13:16:11;7.68;;;6.97;;
57828;SDS011;43657;52.698;6.314;2023-04-01T13:32:47;7.70;;;7.00;;
57828;SDS011;43657;52.698;6.314;2023-04-01T13:44:20;7.00;;;6.38;;
57828;SDS011;43657;52.698;6.314;2023-04-01T13:47:03;7.35;;;6.65;;
57828;SDS011;43657;52.698;6.314;2023-04-01T14:03:27;6.80;;;6.20;;
57828;SDS011;43657;52.698;6.314;2023-04-01T14:06:14;7.60;;;6.82;;
57828;SDS011;43657;52.698;6.314;2023-04-01T14:14:24;9.15;;;8.30;;
57828;SDS011;43657;52.698;6.314;2023-04-01T14:20:29;8.38;;;7.57;;
57828;SDS011;43657;52.698;6.314;2023-04-01T14:25:50;9.50;;;8.57;;
57828;SDS011;43657;52.698;6.314;2023-04-01T14:28:31;8.45;;;7.75;;
57828;SDS011;43657;52.698;6.314;2023-04-01T14:31:20;8.15;;;7.45;;
57828;SDS011;43657;52.698;6.314;2023-04-01T14:34:05;8.45;;;7.65;;
57828;SDS011;43657;52.698;6.314;2023-04-01T14:37:01;10.13;;;9.23;;
57828;SDS011;43657;52.698;6.314;2023-04-01T14:59:28;6.40;;;5.90;;
57828;SDS011;43657;52.698;6.314;2023-04-01T15:02:17;6.95;;;6.35;;
57828;SDS011;43657;52.698;6.314;2023-04-01T15:10:22;5.38;;;4.97;;
57828;SDS011;43657;52.698;6.314;2023-04-01T15:15:58;5.07;;;4.68;;
57828;SDS011;43657;52.698;6.314;2023-04-01T15:18:47;6.88;;;6.25;;
57828;SDS011;43657;52.698;6.314;2023-04-01T15:30:27;4.70;;;4.30;;
57828;SDS011;43657;52.698;6.314;2023-04-01T15:33:12;4.95;;;4.55;;
57828;SDS011;43657;52.698;6.314;2023-04-01T15:36:09;5.05;;;4.65;;
57828;SDS011;43657;52.698;6.314;2023-04-01T15:42:16;4.70;;;4.30;;
57828;SDS011;43657;52.698;6.314;2023-04-01T15:44:57;4.78;;;3.75;;
57828;SDS011;43657;52.698;6.314;2023-04-01T15:47:33;4.75;;;4.35;;
57828;SDS011;43657;52.698;6.314;2023-04-01T15:55:53;5.70;;;5.20;;
57828;SDS011;43657;52.698;6.314;2023-04-01T15:58:54;5.35;;;4.85;;
57828;SDS011;43657;52.698;6.314;2023-04-01T16:05:09;6.72;;;6.13;;
57828;SDS011;43657;52.698;6.314;2023-04-01T16:08:07;7.38;;;5.80;;
57828;SDS011;43657;52.698;6.314;2023-04-01T16:10:52;4.72;;;4.32;;
57828;SDS011;43657;52.698;6.314;2023-04-01T16:30:58;6.05;;;5.55;;
57828;SDS011;43657;52.698;6.314;2023-04-01T16:41:36;4.50;;;4.10;;
57828;SDS011;43657;52.698;6.314;2023-04-01T16:47:22;5.50;;;5.00;;
57828;SDS011;43657;52.698;6.314;2023-04-01T16:50:05;4.55;;;4.15;;
57828;SDS011;43657;52.698;6.314;2023-04-01T16:55:45;6.00;;;5.50;;
57828;SDS011;43657;52.698;6.314;2023-04-01T17:20:12;6.93;;;6.32;;
57828;SDS011;43657;52.698;6.314;2023-04-01T17:22:55;6.20;;;5.70;;
57828;SDS011;43657;52.698;6.314;2023-04-01T17:25:28;9.18;;;8.27;;
57828;SDS011;43657;52.698;6.314;2023-04-01T17:45:16;16.05;;;14.75;;
57828;SDS011;43657;52.698;6.314;2023-04-01T17:51:07;10.57;;;9.50;;
57828;SDS011;43657;52.698;6.314;2023-04-01T17:59:39;8.55;;;7.85;;
57828;SDS011;43657;52.698;6.314;2023-04-01T18:02:29;9.63;;;8.82;;
57828;SDS011;43657;52.698;6.314;2023-04-01T18:05:30;9.40;;;8.60;;
57828;SDS011;43657;52.698;6.314;2023-04-01T18:11:21;8.65;;;7.85;;
57828;SDS011;43657;52.698;6.314;2023-04-01T18:23:28;9.50;;;8.60;;
57828;SDS011;43657;52.698;6.314;2023-04-01T18:26:14;8.85;;;8.00;;
57828;SDS011;43657;52.698;6.314;2023-04-01T18:28:51;9.10;;;8.30;;
57828;SDS011;43657;52.698;6.314;2023-04-01T18:31:23;9.10;;;8.25;;
57828;SDS011;43657;52.698;6.314;2023-04-01T18:34:15;8.93;;;8.13;;
57828;SDS011;43657;52.698;6.314;2023-04-01T18:37:15;8.75;;;7.95;;
57828;SDS011;43657;52.698;6.314;2023-04-01T18:39:57;8.18;;;7.40;;
57828;SDS011;43657;52.698;6.314;2023-04-01T18:45:54;8.30;;;7.60;;
57828;SDS011;43657;52.698;6.314;2023-04-01T18:48:33;8.70;;;7.90;;
57828;SDS011;43657;52.698;6.314;2023-04-01T18:51:23;9.10;;;8.23;;
57828;SDS011;43657;52.698;6.314;2023-04-01T18:54:32;9.40;;;8.50;;
57828;SDS011;43657;52.698;6.314;2023-04-01T18:57:12;9.73;;;8.82;;
57828;SDS011;43657;52.698;6.314;2023-04-01T18:59:48;9.15;;;8.25;;
57828;SDS011;43657;52.698;6.314;2023-04-01T19:05:18;10.85;;;9.80;;
57828;SDS011;43657;52.698;6.314;2023-04-01T19:07:55;10.00;;;9.10;;
57828;SDS011;43657;52.698;6.314;2023-04-01T19:10:43;10.00;;;9.10;;
57828;SDS011;43657;52.698;6.314;2023-04-01T19:33:14;11.75;;;10.55;;
57828;SDS011;43657;52.698;6.314;2023-04-01T19:35:49;12.02;;;10.93;;
57828;SDS011;43657;52.698;6.314;2023-04-01T19:38:37;11.88;;;10.82;;
57828;SDS011;43657;52.698;6.314;2023-04-01T19:46:49;13.30;;;12.00;;
57828;SDS011;43657;52.698;6.314;2023-04-01T19:52:20;13.77;;;12.32;;
57828;SDS011;43657;52.698;6.314;2023-04-01T19:55:03;13.57;;;12.38;;
57828;SDS011;43657;52.698;6.314;2023-04-01T20:00:23;14.00;;;12.60;;
57828;SDS011;43657;52.698;6.314;2023-04-01T20:05:38;14.82;;;13.40;;
57828;SDS011;43657;52.698;6.314;2023-04-01T20:08:33;15.88;;;14.30;;
57828;SDS011;43657;52.698;6.314;2023-04-01T20:13:55;14.35;;;12.85;;
57828;SDS011;43657;52.698;6.314;2023-04-01T20:16:55;14.40;;;13.00;;
57828;SDS011;43657;52.698;6.314;2023-04-01T20:19:39;15.45;;;13.95;;
57828;SDS011;43657;52.698;6.314;2023-04-01T20:25:22;13.57;;;12.30;;
57828;SDS011;43657;52.698;6.314;2023-04-01T20:27:54;14.75;;;13.32;;
57828;SDS011;43657;52.698;6.314;2023-04-01T20:44:58;14.18;;;12.68;;
57828;SDS011;43657;52.698;6.314;2023-04-01T20:47:50;13.90;;;12.50;;
57828;SDS011;43657;52.698;6.314;2023-04-01T20:50:41;14.45;;;12.38;;
57828;SDS011;43657;52.698;6.314;2023-04-01T21:01:23;14.48;;;12.82;;
57828;SDS011;43657;52.698;6.314;2023-04-01T21:09:41;14.27;;;12.77;;
57828;SDS011;43657;52.698;6.314;2023-04-01T21:17:55;15.73;;;13.40;;
57828;SDS011;43657;52.698;6.314;2023-04-01T21:31:55;16.00;;;14.25;;
57828;SDS011;43657;52.698;6.314;2023-04-01T21:40:31;17.15;;;13.65;;
57828;SDS011;43657;52.698;6.314;2023-04-01T21:58:16;18.42;;;13.68;;
57828;SDS011;43657;52.698;6.314;2023-04-01T22:06:21;15.48;;;13.10;;
57828;SDS011;43657;52.698;6.314;2023-04-01T22:17:23;14.85;;;12.98;;
57828;SDS011;43657;52.698;6.314;2023-04-01T22:22:49;18.02;;;13.52;;
57828;SDS011;43657;52.698;6.314;2023-04-01T22:25:22;16.33;;;13.95;;
57828;SDS011;43657;52.698;6.314;2023-04-01T22:27:57;15.68;;;12.98;;
57828;SDS011;43657;52.698;6.314;2023-04-01T22:31:01;15.02;;;13.07;;
57828;SDS011;43657;52.698;6.314;2023-04-01T22:33:37;15.02;;;13.38;;
57828;SDS011;43657;52.698;6.314;2023-04-01T22:39:02;16.92;;;13.25;;
57828;SDS011;43657;52.698;6.314;2023-04-01T22:46:56;18.02;;;12.80;;
57828;SDS011;43657;52.698;6.314;2023-04-01T22:52:28;14.20;;;12.45;;
57828;SDS011;43657;52.698;6.314;2023-04-01T22:54:52;13.00;;;11.43;;
57828;SDS011;43657;52.698;6.314;2023-04-01T22:57:38;14.77;;;12.85;;
57828;SDS011;43657;52.698;6.314;2023-04-01T23:00:12;14.05;;;12.63;;
57828;SDS011;43657;52.698;6.314;2023-04-01T23:05:49;15.88;;;13.02;;
57828;SDS011;43657;52.698;6.314;2023-04-01T23:11:21;13.88;;;12.38;;
57828;SDS011;43657;52.698;6.314;2023-04-01T23:16:40;15.40;;;12.80;;
57828;SDS011;43657;52.698;6.314;2023-04-01T23:19:23;13.43;;;11.55;;
57828;SDS011;43657;52.698;6.314;2023-04-01T23:22:16;15.20;;;12.32;;
57828;SDS011;43657;52.698;6.314;2023-04-01T23:27:47;13.60;;;11.98;;
57828;SDS011;43657;52.698;6.314;2023-04-01T23:38:16;14.95;;;12.10;;
57828;SDS011;43657;52.698;6.314;2023-04-01T23:40:43;14.05;;;12.15;;
57828;SDS011;43657;52.698;6.314;2023-04-01T23:43:32;15.38;;;12.35;;
57828;SDS011;43657;52.698;6.314;2023-04-01T23:45:58;12.93;;;11.30;;
57828;SDS011;43657;52.698;6.314;2023-04-01T23:48:38;13.57;;;11.43;;
57828;SDS011;43657;52.698;6.314;2023-04-01T23:51:13;13.32;;;11.18;;
57828;SDS011;43657;52.698;6.314;2023-04-01T23:53:46;15.25;;;11.88;;
57828;SDS011;43657;52.698;6.314;2023-04-01T23:56:20;12.88;;;10.75;;
57828;SDS011;43657;52.698;6.314;2023-04-01T23:58:50;13.82;;;11.55;;
